createdAt,value
2023-03-18T00:03:11.357Z,11.65
2023-03-18T00:07:11.640Z,11.63
2023-03-18T00:11:15.456Z,11.64
2023-03-18T00:15:15.312Z,11.61
2023-03-18T00:19:12.015Z,11.57
2023-03-18T00:23:12.048Z,11.54
2023-03-18T00:31:12.596Z,11.53
2023-03-18T00:35:11.377Z,11.51
2023-03-18T00:39:12.340Z,11.50
2023-03-18T00:43:11.750Z,11.48
2023-03-18T00:47:11.344Z,11.45
2023-03-18T00:51:13.253Z,11.40
2023-03-18T00:55:11.408Z,11.36
2023-03-18T00:59:12.340Z,11.32
2023-03-18T01:03:13.154Z,11.29
2023-03-18T01:07:12.405Z,11.26
2023-03-18T01:11:12.570Z,11.23
2023-03-18T01:15:14.017Z,11.17
2023-03-18T01:19:12.705Z,11.12
2023-03-18T01:23:12.336Z,11.05
2023-03-18T01:27:12.917Z,11.00
2023-03-18T01:31:11.674Z,10.96
2023-03-18T01:35:11.991Z,10.92
2023-03-18T01:39:11.469Z,10.85
2023-03-18T01:43:15.161Z,10.84
2023-03-18T01:47:12.396Z,10.82
2023-03-18T01:51:12.646Z,10.81
2023-03-18T01:55:15.263Z,10.76
2023-03-18T01:59:13.035Z,10.72
2023-03-18T02:03:11.890Z,10.70
2023-03-18T02:07:14.498Z,10.64
2023-03-18T02:11:12.540Z,10.60
2023-03-18T02:15:16.145Z,10.57
2023-03-18T02:19:24.988Z,10.51
2023-03-18T02:23:21.761Z,10.48
2023-03-18T02:27:14.771Z,10.47
2023-03-18T02:31:15.772Z,10.45
2023-03-18T02:35:12.773Z,10.44
2023-03-18T02:43:18.472Z,10.40
2023-03-18T02:51:15.192Z,10.38
2023-03-18T02:55:11.864Z,10.39
2023-03-18T02:59:12.754Z,10.41
2023-03-18T03:03:11.829Z,10.43
2023-03-18T03:07:12.570Z,10.46
2023-03-18T03:11:12.222Z,10.44
2023-03-18T03:19:11.844Z,10.43
2023-03-18T03:27:12.167Z,10.45
2023-03-18T03:31:11.863Z,10.46
2023-03-18T03:39:11.889Z,10.44
2023-03-18T03:47:12.239Z,10.39
2023-03-18T03:51:11.860Z,10.40
2023-03-18T03:55:14.158Z,10.42
2023-03-18T03:59:11.834Z,10.44
2023-03-18T04:03:12.487Z,10.45
2023-03-18T04:07:13.344Z,10.44
2023-03-18T04:15:13.749Z,10.45
2023-03-18T04:23:12.104Z,10.48
2023-03-18T04:31:12.426Z,10.45
2023-03-18T04:35:11.923Z,10.46
2023-03-18T04:43:12.183Z,10.47
2023-03-18T04:47:12.705Z,10.50
2023-03-18T04:51:12.575Z,10.52
2023-03-18T04:55:13.806Z,10.53
2023-03-18T04:59:12.058Z,10.54
2023-03-18T05:07:14.675Z,10.55
2023-03-18T05:11:12.012Z,10.53
2023-03-18T05:19:13.553Z,10.52
2023-03-18T05:23:12.093Z,10.49
2023-03-18T05:27:13.694Z,10.51
2023-03-18T05:31:12.076Z,10.56
2023-03-18T05:35:12.555Z,10.57
2023-03-18T05:43:14.051Z,10.58
2023-03-18T05:51:12.317Z,10.57
2023-03-18T05:55:12.838Z,10.52
2023-03-18T05:59:13.142Z,10.48
2023-03-18T06:03:12.356Z,10.47
2023-03-18T06:07:12.727Z,10.45
2023-03-18T06:11:12.727Z,10.41
2023-03-18T06:15:12.747Z,10.38
2023-03-18T06:19:12.361Z,10.35
2023-03-18T06:35:14.557Z,10.33
2023-03-18T06:39:13.007Z,10.31
2023-03-18T06:43:13.581Z,10.30
2023-03-18T06:47:12.443Z,10.27
2023-03-18T06:51:12.674Z,10.30
2023-03-18T06:55:13.789Z,10.32
2023-03-18T06:59:12.915Z,10.35
2023-03-18T07:03:14.567Z,10.34
2023-03-18T07:07:12.553Z,10.35
2023-03-18T07:19:12.713Z,10.36
2023-03-18T07:23:12.480Z,10.38
2023-03-18T07:27:13.956Z,10.41
2023-03-18T07:31:13.140Z,10.42
2023-03-18T07:39:12.604Z,10.43
2023-03-18T07:47:13.698Z,10.45
2023-03-18T07:51:14.198Z,10.47
2023-03-18T07:55:12.850Z,10.51
2023-03-18T07:59:12.496Z,10.56
2023-03-18T08:03:13.109Z,10.59
2023-03-18T08:07:13.143Z,10.62
2023-03-18T08:11:13.781Z,10.65
2023-03-18T08:15:12.928Z,10.66
2023-03-18T08:19:12.656Z,10.68
2023-03-18T08:27:12.713Z,10.69
2023-03-18T08:35:12.918Z,10.71
2023-03-18T08:39:13.599Z,10.72
2023-03-18T08:43:12.805Z,10.69
2023-03-18T08:47:12.621Z,10.68
2023-03-18T08:51:13.737Z,10.67
2023-03-18T08:55:13.010Z,10.65
2023-03-18T08:59:12.866Z,10.61
2023-03-18T09:03:13.801Z,10.56
2023-03-18T09:07:13.767Z,10.53
2023-03-18T09:11:12.844Z,10.54
2023-03-18T09:19:12.849Z,10.50
2023-03-18T09:23:14.683Z,10.51
2023-03-18T09:27:13.208Z,10.57
2023-03-18T09:31:14.368Z,10.58
2023-03-18T09:35:13.477Z,10.62
2023-03-18T09:39:13.183Z,10.63
2023-03-18T09:43:22.546Z,10.64
2023-03-18T09:47:22.818Z,10.66
2023-03-18T09:51:23.197Z,10.71
2023-03-18T09:55:21.382Z,10.77
2023-03-18T09:59:19.195Z,10.85
2023-03-18T10:03:20.475Z,10.92
2023-03-18T10:07:17.984Z,11.04
2023-03-18T10:11:21.296Z,11.12
2023-03-18T10:15:16.986Z,11.18
2023-03-18T10:19:12.894Z,11.24
2023-03-18T10:23:23.390Z,11.26
2023-03-18T10:27:18.154Z,11.25
2023-03-18T10:35:23.663Z,11.28
2023-03-18T10:39:15.404Z,11.31
2023-03-18T10:43:16.214Z,11.34
2023-03-18T10:51:18.946Z,11.32
2023-03-18T10:55:16.571Z,11.33
2023-03-18T10:59:15.341Z,11.36
2023-03-18T11:03:20.073Z,11.34
2023-03-18T11:15:19.518Z,11.36
2023-03-18T11:19:27.025Z,11.35
2023-03-18T11:23:17.080Z,11.37
2023-03-18T11:27:25.109Z,11.38
2023-03-18T11:31:17.092Z,11.40
2023-03-18T11:35:18.390Z,11.44
2023-03-18T11:39:15.596Z,11.46
2023-03-18T11:47:21.130Z,11.48
2023-03-18T11:51:32.586Z,11.50
2023-03-18T11:55:25.181Z,11.53
2023-03-18T11:59:31.064Z,11.58
2023-03-18T12:03:34.541Z,11.60
2023-03-18T12:07:25.467Z,11.65
2023-03-18T12:11:20.746Z,11.70
2023-03-18T12:15:22.961Z,11.77
2023-03-18T12:19:26.080Z,11.85
2023-03-18T12:23:28.849Z,11.84
2023-03-18T12:27:22.349Z,11.79
2023-03-18T12:31:28.316Z,11.86
2023-03-18T12:35:29.539Z,11.93
2023-03-18T12:39:33.058Z,11.97
2023-03-18T12:43:23.952Z,12.01
2023-03-18T12:47:19.721Z,12.09
2023-03-18T12:51:17.648Z,12.15
2023-03-18T12:55:17.365Z,12.20
2023-03-18T12:59:21.247Z,12.31
2023-03-18T13:03:25.209Z,12.47
2023-03-18T13:07:21.782Z,12.62
2023-03-18T13:11:28.209Z,12.71
2023-03-18T13:15:19.909Z,12.76
2023-03-18T13:19:13.358Z,12.75
2023-03-18T13:23:18.355Z,12.67
2023-03-18T13:27:23.488Z,12.49
2023-03-18T13:31:21.639Z,12.38
2023-03-18T13:35:33.267Z,12.33
2023-03-18T13:39:23.145Z,12.28
2023-03-18T13:43:17.478Z,12.18
2023-03-18T13:47:17.678Z,12.09
2023-03-18T13:51:19.555Z,12.06
2023-03-18T13:55:25.581Z,12.07
2023-03-18T13:59:33.372Z,12.09
2023-03-18T14:03:25.852Z,12.11
2023-03-18T14:07:16.656Z,12.17
2023-03-18T14:11:33.343Z,12.19
2023-03-18T14:15:33.521Z,12.18
2023-03-18T14:19:20.754Z,12.17
2023-03-18T14:31:19.473Z,12.22
2023-03-18T14:35:27.183Z,12.32
2023-03-18T14:39:17.661Z,12.30
2023-03-18T14:43:19.073Z,12.28
2023-03-18T14:47:35.558Z,12.27
2023-03-18T14:51:18.446Z,12.25
2023-03-18T14:59:16.377Z,12.29
2023-03-18T15:03:19.133Z,12.34
2023-03-18T15:11:15.362Z,12.33
2023-03-18T15:19:17.041Z,12.36
2023-03-18T15:23:15.051Z,12.33
2023-03-18T15:27:17.048Z,12.32
2023-03-18T15:31:23.938Z,12.33
2023-03-18T15:35:17.181Z,12.36
2023-03-18T15:39:18.441Z,12.40
2023-03-18T15:43:18.207Z,12.51
2023-03-18T15:47:17.383Z,12.76
2023-03-18T15:51:25.414Z,12.89
2023-03-18T15:55:25.579Z,13.19
2023-03-18T15:59:17.835Z,13.38
2023-03-18T16:03:17.995Z,13.31
2023-03-18T16:07:17.561Z,13.13
2023-03-18T16:11:14.950Z,13.21
2023-03-18T16:15:20.880Z,13.42
2023-03-18T16:19:18.340Z,13.47
2023-03-18T16:23:15.672Z,13.60
2023-03-18T16:27:27.264Z,13.61
2023-03-18T16:31:14.427Z,13.45
2023-03-18T16:35:14.915Z,13.39
2023-03-18T16:39:15.956Z,13.34
2023-03-18T16:43:16.549Z,13.36
2023-03-18T16:47:20.772Z,13.30
2023-03-18T16:51:13.989Z,13.28
2023-03-18T16:55:17.458Z,13.23
2023-03-18T16:59:14.759Z,13.20
2023-03-18T17:03:17.108Z,13.19
2023-03-18T17:07:14.595Z,13.21
2023-03-18T17:11:17.394Z,13.49
2023-03-18T17:15:16.785Z,13.77
2023-03-18T17:19:15.717Z,13.90
2023-03-18T17:23:15.958Z,13.74
2023-03-18T17:27:17.758Z,13.72
2023-03-18T17:31:15.554Z,13.64
2023-03-18T17:35:16.995Z,13.49
2023-03-18T17:39:14.318Z,13.45
2023-03-18T17:43:21.778Z,13.34
2023-03-18T17:47:14.150Z,13.24
2023-03-18T17:51:16.550Z,13.15
2023-03-18T17:55:16.311Z,13.13
2023-03-18T17:59:16.136Z,13.08
2023-03-18T18:03:19.997Z,13.04
2023-03-18T18:07:17.075Z,12.99
2023-03-18T18:11:19.037Z,12.93
2023-03-18T18:15:18.805Z,12.85
2023-03-18T18:19:15.501Z,12.81
2023-03-18T18:23:21.970Z,12.77
2023-03-18T18:27:14.939Z,12.73
2023-03-18T18:31:16.577Z,12.68
2023-03-18T18:35:16.309Z,12.62
2023-03-18T18:39:14.374Z,12.57
2023-03-18T18:43:14.281Z,12.49
2023-03-18T18:47:16.684Z,12.36
2023-03-18T18:51:17.299Z,12.27
2023-03-18T18:55:14.695Z,12.20
2023-03-18T18:59:21.964Z,12.12
2023-03-18T19:03:15.947Z,12.09
2023-03-18T19:07:14.506Z,12.08
2023-03-18T19:15:15.700Z,12.04
2023-03-18T19:19:17.698Z,12.00
2023-03-18T19:23:15.784Z,11.94
2023-03-18T19:27:19.573Z,11.85
2023-03-18T19:31:17.801Z,11.77
2023-03-18T19:35:14.683Z,11.68
2023-03-18T19:39:16.633Z,11.64
2023-03-18T19:43:16.807Z,11.58
2023-03-18T19:47:18.033Z,11.56
2023-03-18T19:51:15.268Z,11.54
2023-03-18T19:55:15.606Z,11.52
2023-03-18T19:59:18.997Z,11.51
2023-03-18T20:03:17.186Z,11.46
2023-03-18T20:07:15.437Z,11.44
2023-03-18T20:11:16.694Z,11.40
2023-03-18T20:15:16.380Z,11.34
2023-03-18T20:19:14.562Z,11.28
2023-03-18T20:23:19.645Z,11.23
2023-03-18T20:27:16.280Z,11.26
2023-03-18T20:31:14.638Z,11.18
2023-03-18T20:35:15.879Z,11.09
2023-03-18T20:39:19.726Z,11.03
2023-03-18T20:55:21.372Z,11.05
2023-03-18T20:59:14.740Z,11.04
2023-03-18T21:03:22.228Z,11.08
2023-03-18T21:07:14.793Z,11.14
2023-03-18T21:11:20.894Z,11.17
2023-03-18T21:15:17.693Z,11.19
2023-03-18T21:19:15.227Z,11.20
2023-03-18T21:23:20.668Z,11.21
2023-03-18T21:27:19.012Z,11.22
2023-03-18T21:31:22.141Z,11.21
2023-03-18T21:35:17.705Z,11.19
2023-03-18T21:39:14.956Z,11.17
2023-03-18T21:43:24.374Z,11.19
2023-03-18T21:47:16.935Z,11.18
2023-03-18T21:51:37.248Z,11.17
2023-03-18T21:55:16.013Z,11.18
2023-03-18T21:59:15.028Z,11.19
2023-03-18T22:03:17.386Z,11.20
2023-03-18T22:15:31.947Z,11.21
2023-03-18T22:19:14.859Z,11.15
2023-03-18T22:23:17.878Z,11.12
2023-03-18T22:27:17.496Z,11.10
2023-03-18T22:31:18.651Z,11.07
2023-03-18T22:35:16.971Z,11.01
2023-03-18T22:39:15.188Z,11.03
2023-03-18T22:43:24.467Z,11.02
2023-03-18T22:47:16.286Z,11.01
2023-03-18T22:55:20.121Z,10.96
2023-03-18T22:59:15.029Z,10.93
2023-03-18T23:03:17.638Z,10.94
2023-03-18T23:11:16.340Z,10.96
2023-03-18T23:15:17.316Z,10.97
2023-03-18T23:23:15.916Z,10.96
2023-03-18T23:27:15.081Z,10.94
2023-03-18T23:31:16.338Z,10.92
2023-03-18T23:35:15.672Z,10.86
2023-03-18T23:39:15.184Z,10.79
2023-03-18T23:43:15.554Z,10.77
2023-03-18T23:47:16.068Z,10.76
2023-03-18T23:51:15.115Z,10.75
2023-03-18T23:55:33.011Z,10.76
2023-03-18T23:59:15.170Z,10.71
